sensor_id;sensor_type;location;lat;lon;timestamp;pressure;altitude;pressure_sealevel;temperature;humidity
58295;BME280;45705;55.592;37.460;2023-05-02T00:02:07;99603.63;;;2.98;100.00
58295;BME280;45705;55.592;37.460;2023-05-02T00:04:33;99610.91;;;3.02;100.00
58295;BME280;45705;55.592;37.460;2023-05-02T00:06:58;99611.25;;;2.89;100.00
58295;BME280;45705;55.592;37.460;2023-05-02T00:09:24;99612.09;;;2.89;100.00
58295;BME280;45705;55.592;37.460;2023-05-02T00:11:50;99612.97;;;2.95;100.00
58295;BME280;45705;55.592;37.460;2023-05-02T00:14:16;99623.72;;;2.95;100.00
58295;BME280;45705;55.592;37.460;2023-05-02T00:16:42;99619.03;;;2.85;100.00
58295;BME280;45705;55.592;37.460;2023-05-02T00:19:08;99620.88;;;2.85;100.00
58295;BME280;45705;55.592;37.460;2023-05-02T00:21:33;99636.97;;;2.85;100.00
58295;BME280;45705;55.592;37.460;2023-05-02T00:23:59;99632.44;;;2.85;100.00
58295;BME280;45705;55.592;37.460;2023-05-02T00:26:25;99638.78;;;2.79;100.00
58295;BME280;45705;55.592;37.460;2023-05-02T00:28:52;99627.22;;;2.79;100.00
58295;BME280;45705;55.592;37.460;2023-05-02T00:31:18;99644.09;;;2.74;100.00
58295;BME280;45705;55.592;37.460;2023-05-02T00:33:43;99649.22;;;2.75;100.00
58295;BME280;45705;55.592;37.460;2023-05-02T00:36:16;99644.00;;;2.69;100.00
58295;BME280;45705;55.592;37.460;2023-05-02T00:38:44;99644.72;;;2.64;100.00
58295;BME280;45705;55.592;37.460;2023-05-02T00:41:11;99641.38;;;2.57;100.00
58295;BME280;45705;55.592;37.460;2023-05-02T00:43:37;99654.25;;;2.55;100.00
58295;BME280;45705;55.592;37.460;2023-05-02T00:46:07;99661.81;;;2.58;100.00
58295;BME280;45705;55.592;37.460;2023-05-02T00:48:33;99661.25;;;2.56;100.00
58295;BME280;45705;55.592;37.460;2023-05-02T00:51:02;99660.09;;;2.52;100.00
58295;BME280;45705;55.592;37.460;2023-05-02T00:53:30;99658.00;;;2.54;100.00
58295;BME280;45705;55.592;37.460;2023-05-02T00:56:00;99665.38;;;2.47;100.00
58295;BME280;45705;55.592;37.460;2023-05-02T00:58:26;99668.81;;;2.59;100.00
58295;BME280;45705;55.592;37.460;2023-05-02T01:06:44;99658.31;;;2.41;100.00
58295;BME280;45705;55.592;37.460;2023-05-02T01:15:06;99680.06;;;2.44;100.00
58295;BME280;45705;55.592;37.460;2023-05-02T01:17:34;99681.88;;;2.39;100.00
58295;BME280;45705;55.592;37.460;2023-05-02T01:20:04;99675.53;;;2.45;100.00
58295;BME280;45705;55.592;37.460;2023-05-02T01:22:32;99688.13;;;2.44;100.00
58295;BME280;45705;55.592;37.460;2023-05-02T01:28:09;99694.56;;;2.43;100.00
58295;BME280;45705;55.592;37.460;2023-05-02T01:30:41;99694.81;;;2.42;100.00
58295;BME280;45705;55.592;37.460;2023-05-02T01:33:10;99698.47;;;2.35;100.00
58295;BME280;45705;55.592;37.460;2023-05-02T01:35:39;99701.88;;;2.31;100.00
58295;BME280;45705;55.592;37.460;2023-05-02T01:38:07;99704.72;;;2.41;100.00
58295;BME280;45705;55.592;37.460;2023-05-02T01:40:33;99706.69;;;2.46;100.00
58295;BME280;45705;55.592;37.460;2023-05-02T01:43:01;99712.56;;;2.43;100.00
58295;BME280;45705;55.592;37.460;2023-05-02T01:45:30;99709.66;;;2.32;100.00
58295;BME280;45705;55.592;37.460;2023-05-02T01:47:57;99708.84;;;2.32;100.00
58295;BME280;45705;55.592;37.460;2023-05-02T01:50:23;99717.00;;;2.37;100.00
58295;BME280;45705;55.592;37.460;2023-05-02T01:52:52;99723.06;;;2.32;100.00
58295;BME280;45705;55.592;37.460;2023-05-02T01:55:20;99720.22;;;2.22;100.00
58295;BME280;45705;55.592;37.460;2023-05-02T01:57:49;99726.72;;;2.26;100.00
58295;BME280;45705;55.592;37.460;2023-05-02T02:00:17;99716.47;;;2.23;100.00
58295;BME280;45705;55.592;37.460;2023-05-02T02:02:45;99722.88;;;2.22;100.00
58295;BME280;45705;55.592;37.460;2023-05-02T02:05:14;99730.09;;;2.33;100.00
58295;BME280;45705;55.592;37.460;2023-05-02T02:07:42;99738.88;;;2.17;100.00
58295;BME280;45705;55.592;37.460;2023-05-02T02:10:08;99740.06;;;2.21;100.00
58295;BME280;45705;55.592;37.460;2023-05-02T02:12:52;99746.31;;;2.27;100.00
58295;BME280;45705;55.592;37.460;2023-05-02T02:15:27;99748.06;;;2.33;100.00
58295;BME280;45705;55.592;37.460;2023-05-02T02:17:59;99756.53;;;2.42;100.00
58295;BME280;45705;55.592;37.460;2023-05-02T02:20:27;99752.31;;;2.46;100.00
58295;BME280;45705;55.592;37.460;2023-05-02T02:22:55;99761.91;;;2.42;100.00
58295;BME280;45705;55.592;37.460;2023-05-02T02:25:23;99771.19;;;2.51;100.00
58295;BME280;45705;55.592;37.460;2023-05-02T02:27:50;99766.59;;;2.63;100.00
58295;BME280;45705;55.592;37.460;2023-05-02T02:30:16;99769.28;;;2.63;100.00
58295;BME280;45705;55.592;37.460;2023-05-02T02:32:42;99775.78;;;2.67;100.00
58295;BME280;45705;55.592;37.460;2023-05-02T02:35:09;99769.78;;;2.60;100.00
58295;BME280;45705;55.592;37.460;2023-05-02T02:37:53;99775.31;;;2.70;100.00
58295;BME280;45705;55.592;37.460;2023-05-02T02:40:34;99772.56;;;2.82;100.00
58295;BME280;45705;55.592;37.460;2023-05-02T02:43:26;99775.81;;;2.84;100.00
58295;BME280;45705;55.592;37.460;2023-05-02T02:51:29;99787.25;;;3.08;100.00
58295;BME280;45705;55.592;37.460;2023-05-02T02:54:23;99780.50;;;3.23;99.80
58295;BME280;45705;55.592;37.460;2023-05-02T02:56:57;99781.06;;;3.25;99.36
58295;BME280;45705;55.592;37.460;2023-05-02T02:59:34;99790.03;;;3.30;99.68
58295;BME280;45705;55.592;37.460;2023-05-02T03:02:06;99788.31;;;3.41;98.69
58295;BME280;45705;55.592;37.460;2023-05-02T03:04:35;99791.16;;;3.51;97.71
58295;BME280;45705;55.592;37.460;2023-05-02T03:07:03;99787.97;;;3.54;96.85
58295;BME280;45705;55.592;37.460;2023-05-02T03:09:46;99792.78;;;3.69;95.40
58295;BME280;45705;55.592;37.460;2023-05-02T03:12:17;99788.94;;;3.82;94.25
58295;BME280;45705;55.592;37.460;2023-05-02T03:14:43;99798.84;;;3.82;93.85
58295;BME280;45705;55.592;37.460;2023-05-02T03:17:10;99793.06;;;3.90;93.16
58295;BME280;45705;55.592;37.460;2023-05-02T03:19:36;99801.16;;;4.12;92.59
58295;BME280;45705;55.592;37.460;2023-05-02T03:22:04;99804.53;;;4.24;90.88
58295;BME280;45705;55.592;37.460;2023-05-02T03:24:33;99806.16;;;4.47;90.13
58295;BME280;45705;55.592;37.460;2023-05-02T03:26:59;99787.53;;;6.91;78.13
58295;BME280;45705;55.592;37.460;2023-05-02T03:29:31;99792.47;;;8.91;64.92
58295;BME280;45705;55.592;37.460;2023-05-02T03:31:56;99799.53;;;10.62;55.36
58295;BME280;45705;55.592;37.460;2023-05-02T03:34:22;99785.00;;;12.17;48.48
58295;BME280;45705;55.592;37.460;2023-05-02T03:36:50;99790.66;;;12.35;47.43
58295;BME280;45705;55.592;37.460;2023-05-02T03:39:16;99801.34;;;13.18;44.62
58295;BME280;45705;55.592;37.460;2023-05-02T03:41:43;99799.88;;;14.28;41.65
58295;BME280;45705;55.592;37.460;2023-05-02T03:44:13;99798.88;;;15.43;38.68
58295;BME280;45705;55.592;37.460;2023-05-02T03:46:39;99801.66;;;16.67;36.91
58295;BME280;45705;55.592;37.460;2023-05-02T03:49:09;99805.75;;;16.90;34.96
58295;BME280;45705;55.592;37.460;2023-05-02T03:51:36;99801.69;;;17.09;34.49
58295;BME280;45705;55.592;37.460;2023-05-02T03:54:02;99810.78;;;17.43;34.21
58295;BME280;45705;55.592;37.460;2023-05-02T03:56:29;99819.34;;;17.62;33.78
58295;BME280;45705;55.592;37.460;2023-05-02T03:59:07;99809.16;;;19.11;31.47
58295;BME280;45705;55.592;37.460;2023-05-02T04:01:33;99814.47;;;20.20;29.55
58295;BME280;45705;55.592;37.460;2023-05-02T04:04:01;99822.56;;;18.59;31.59
58295;BME280;45705;55.592;37.460;2023-05-02T04:06:32;99818.97;;;18.96;31.26
58295;BME280;45705;55.592;37.460;2023-05-02T04:09:02;99829.31;;;17.34;33.04
58295;BME280;45705;55.592;37.460;2023-05-02T04:11:36;99828.19;;;18.50;31.37
58295;BME280;45705;55.592;37.460;2023-05-02T04:14:03;99830.44;;;19.66;29.77
58295;BME280;45705;55.592;37.460;2023-05-02T04:16:29;99838.84;;;19.30;29.93
58295;BME280;45705;55.592;37.460;2023-05-02T04:18:55;99830.25;;;18.41;31.44
58295;BME280;45705;55.592;37.460;2023-05-02T04:21:22;99833.78;;;18.17;32.16
58295;BME280;45705;55.592;37.460;2023-05-02T04:23:48;99838.97;;;18.56;30.97
58295;BME280;45705;55.592;37.460;2023-05-02T04:26:14;99842.75;;;18.26;31.87
58295;BME280;45705;55.592;37.460;2023-05-02T04:28:50;99843.97;;;19.43;30.53
58295;BME280;45705;55.592;37.460;2023-05-02T04:31:16;99835.16;;;20.26;28.87
58295;BME280;45705;55.592;37.460;2023-05-02T04:33:44;99850.91;;;18.35;30.55
58295;BME280;45705;55.592;37.460;2023-05-02T04:36:11;99844.47;;;21.04;28.00
58295;BME280;45705;55.592;37.460;2023-05-02T04:38:40;99848.69;;;22.19;26.22
58295;BME280;45705;55.592;37.460;2023-05-02T04:41:07;99846.31;;;21.55;26.45
58295;BME280;45705;55.592;37.460;2023-05-02T04:43:38;99834.19;;;22.06;25.67
58295;BME280;45705;55.592;37.460;2023-05-02T04:46:05;99854.84;;;21.27;26.14
58295;BME280;45705;55.592;37.460;2023-05-02T04:48:35;99867.34;;;19.90;28.47
58295;BME280;45705;55.592;37.460;2023-05-02T04:51:01;99865.53;;;20.26;28.08
58295;BME280;45705;55.592;37.460;2023-05-02T04:53:28;99851.19;;;24.02;24.25
58295;BME280;45705;55.592;37.460;2023-05-02T04:55:54;99862.41;;;23.75;23.86
58295;BME280;45705;55.592;37.460;2023-05-02T04:58:20;99876.69;;;22.87;24.11
58295;BME280;45705;55.592;37.460;2023-05-02T05:00:52;99866.19;;;22.99;24.22
58295;BME280;45705;55.592;37.460;2023-05-02T05:03:19;99862.78;;;23.74;24.14
58295;BME280;45705;55.592;37.460;2023-05-02T05:05:45;99859.66;;;24.65;22.05
58295;BME280;45705;55.592;37.460;2023-05-02T05:08:14;99857.84;;;25.74;21.62
58295;BME280;45705;55.592;37.460;2023-05-02T05:10:39;99869.28;;;23.85;22.44
58295;BME280;45705;55.592;37.460;2023-05-02T05:13:06;99868.91;;;23.56;22.89
58295;BME280;45705;55.592;37.460;2023-05-02T05:15:33;99874.31;;;23.42;23.51
58295;BME280;45705;55.592;37.460;2023-05-02T05:18:00;99867.38;;;24.37;22.38
58295;BME280;45705;55.592;37.460;2023-05-02T05:20:27;99874.75;;;25.23;20.70
58295;BME280;45705;55.592;37.460;2023-05-02T05:22:56;99870.41;;;25.29;20.86
58295;BME280;45705;55.592;37.460;2023-05-02T05:25:25;99869.03;;;26.00;20.15
58295;BME280;45705;55.592;37.460;2023-05-02T05:27:52;99867.81;;;25.83;21.08
58295;BME280;45705;55.592;37.460;2023-05-02T05:30:20;99869.59;;;27.69;18.92
58295;BME280;45705;55.592;37.460;2023-05-02T05:32:46;99877.06;;;24.51;20.94
58295;BME280;45705;55.592;37.460;2023-05-02T05:35:12;99868.28;;;24.49;21.35
58295;BME280;45705;55.592;37.460;2023-05-02T05:37:39;99878.84;;;24.32;21.70
58295;BME280;45705;55.592;37.460;2023-05-02T05:40:07;99867.50;;;26.56;19.54
58295;BME280;45705;55.592;37.460;2023-05-02T05:42:35;99875.06;;;26.16;19.29
58295;BME280;45705;55.592;37.460;2023-05-02T05:45:06;99870.03;;;28.31;17.60
58295;BME280;45705;55.592;37.460;2023-05-02T05:47:33;99863.69;;;28.72;17.88
58295;BME280;45705;55.592;37.460;2023-05-02T05:49:59;99871.81;;;28.03;16.85
58295;BME280;45705;55.592;37.460;2023-05-02T05:52:31;99881.59;;;25.36;19.04
58295;BME280;45705;55.592;37.460;2023-05-02T05:55:00;99879.00;;;28.07;16.98
58295;BME280;45705;55.592;37.460;2023-05-02T05:57:31;99880.22;;;26.93;17.56
58295;BME280;45705;55.592;37.460;2023-05-02T05:59:57;99880.88;;;25.64;19.79
58295;BME280;45705;55.592;37.460;2023-05-02T06:02:23;99893.56;;;25.54;17.50
58295;BME280;45705;55.592;37.460;2023-05-02T06:04:49;99879.69;;;25.62;17.45
58295;BME280;45705;55.592;37.460;2023-05-02T06:07:18;99877.06;;;25.13;17.77
58295;BME280;45705;55.592;37.460;2023-05-02T06:09:44;99876.16;;;25.79;16.87
58295;BME280;45705;55.592;37.460;2023-05-02T06:12:10;99878.09;;;25.64;17.47
58295;BME280;45705;55.592;37.460;2023-05-02T06:14:37;99876.56;;;27.18;15.16
58295;BME280;45705;55.592;37.460;2023-05-02T06:17:02;99871.81;;;28.03;14.55
58295;BME280;45705;55.592;37.460;2023-05-02T06:19:28;99878.25;;;26.40;15.89
58295;BME280;45705;55.592;37.460;2023-05-02T06:21:54;99884.72;;;25.31;17.24
58295;BME280;45705;55.592;37.460;2023-05-02T06:24:21;99881.84;;;26.44;16.43
58295;BME280;45705;55.592;37.460;2023-05-02T06:26:47;99882.59;;;27.09;15.64
58295;BME280;45705;55.592;37.460;2023-05-02T06:29:13;99887.44;;;26.37;16.39
58295;BME280;45705;55.592;37.460;2023-05-02T06:31:38;99877.03;;;26.12;17.58
58295;BME280;45705;55.592;37.460;2023-05-02T06:34:04;99887.34;;;25.93;17.02
58295;BME280;45705;55.592;37.460;2023-05-02T06:36:30;99879.47;;;26.67;17.21
58295;BME280;45705;55.592;37.460;2023-05-02T06:38:56;99888.16;;;25.98;16.67
58295;BME280;45705;55.592;37.460;2023-05-02T06:41:21;99883.44;;;26.27;17.04
58295;BME280;45705;55.592;37.460;2023-05-02T06:43:48;99896.22;;;26.60;16.40
58295;BME280;45705;55.592;37.460;2023-05-02T06:46:14;99888.56;;;27.07;16.31
58295;BME280;45705;55.592;37.460;2023-05-02T06:48:39;99893.75;;;26.23;16.53
58295;BME280;45705;55.592;37.460;2023-05-02T06:51:05;99895.25;;;25.88;16.69
58295;BME280;45705;55.592;37.460;2023-05-02T06:53:32;99889.75;;;25.99;16.74
58295;BME280;45705;55.592;37.460;2023-05-02T06:55:58;99892.59;;;26.63;15.56
58295;BME280;45705;55.592;37.460;2023-05-02T06:58:23;99893.78;;;26.33;15.90
58295;BME280;45705;55.592;37.460;2023-05-02T07:00:49;99898.97;;;26.89;15.09
58295;BME280;45705;55.592;37.460;2023-05-02T07:03:15;99897.00;;;26.64;15.73
58295;BME280;45705;55.592;37.460;2023-05-02T07:05:41;99897.34;;;26.52;15.86
58295;BME280;45705;55.592;37.460;2023-05-02T07:08:07;99895.25;;;25.77;17.01
58295;BME280;45705;55.592;37.460;2023-05-02T07:10:33;99899.66;;;25.85;16.44
58295;BME280;45705;55.592;37.460;2023-05-02T07:12:59;99899.69;;;25.08;17.22
58295;BME280;45705;55.592;37.460;2023-05-02T07:15:25;99892.03;;;25.68;16.57
58295;BME280;45705;55.592;37.460;2023-05-02T07:17:51;99886.50;;;25.82;16.03
58295;BME280;45705;55.592;37.460;2023-05-02T07:20:18;99885.28;;;25.69;16.46
58295;BME280;45705;55.592;37.460;2023-05-02T07:22:44;99892.31;;;25.34;15.88
58295;BME280;45705;55.592;37.460;2023-05-02T07:25:10;99893.41;;;25.19;16.30
58295;BME280;45705;55.592;37.460;2023-05-02T07:27:36;99893.56;;;24.36;16.90
58295;BME280;45705;55.592;37.460;2023-05-02T07:30:02;99899.06;;;24.29;18.08
58295;BME280;45705;55.592;37.460;2023-05-02T07:32:30;99900.97;;;23.84;18.61
58295;BME280;45705;55.592;37.460;2023-05-02T07:34:55;99903.28;;;22.18;19.52
58295;BME280;45705;55.592;37.460;2023-05-02T07:37:22;99894.38;;;21.67;19.77
58295;BME280;45705;55.592;37.460;2023-05-02T07:39:47;99904.44;;;20.53;20.84
58295;BME280;45705;55.592;37.460;2023-05-02T07:42:13;99902.72;;;19.32;21.49
58295;BME280;45705;55.592;37.460;2023-05-02T07:44:39;99893.53;;;19.96;22.18
58295;BME280;45705;55.592;37.460;2023-05-02T07:47:06;99906.44;;;19.23;22.84
58295;BME280;45705;55.592;37.460;2023-05-02T07:49:32;99903.66;;;18.37;24.13
58295;BME280;45705;55.592;37.460;2023-05-02T07:51:57;99902.50;;;17.59;25.48
58295;BME280;45705;55.592;37.460;2023-05-02T07:54:23;99901.59;;;17.67;24.74
58295;BME280;45705;55.592;37.460;2023-05-02T07:56:52;99902.38;;;17.35;26.09
58295;BME280;45705;55.592;37.460;2023-05-02T07:59:18;99896.03;;;16.53;27.06
58295;BME280;45705;55.592;37.460;2023-05-02T08:01:43;99899.94;;;16.52;27.64
58295;BME280;45705;55.592;37.460;2023-05-02T08:04:09;99903.13;;;16.16;27.58
58295;BME280;45705;55.592;37.460;2023-05-02T08:06:36;99905.94;;;15.72;28.57
58295;BME280;45705;55.592;37.460;2023-05-02T08:09:02;99906.22;;;15.27;28.74
58295;BME280;45705;55.592;37.460;2023-05-02T08:11:28;99894.00;;;15.51;28.70
58295;BME280;45705;55.592;37.460;2023-05-02T08:13:54;99902.22;;;15.33;28.81
58295;BME280;45705;55.592;37.460;2023-05-02T08:16:20;99899.13;;;15.18;29.56
58295;BME280;45705;55.592;37.460;2023-05-02T08:18:46;99901.63;;;14.79;29.28
58295;BME280;45705;55.592;37.460;2023-05-02T08:21:12;99904.84;;;14.64;29.24
58295;BME280;45705;55.592;37.460;2023-05-02T08:23:40;99890.41;;;14.89;28.02
58295;BME280;45705;55.592;37.460;2023-05-02T08:26:06;99894.44;;;14.83;28.91
58295;BME280;45705;55.592;37.460;2023-05-02T08:28:34;99897.84;;;15.15;28.60
58295;BME280;45705;55.592;37.460;2023-05-02T08:31:00;99899.25;;;14.86;29.41
58295;BME280;45705;55.592;37.460;2023-05-02T08:33:26;99896.38;;;14.51;29.29
58295;BME280;45705;55.592;37.460;2023-05-02T08:35:51;99895.03;;;14.40;29.56
58295;BME280;45705;55.592;37.460;2023-05-02T08:38:17;99892.78;;;14.42;29.72
58295;BME280;45705;55.592;37.460;2023-05-02T08:40:43;99893.94;;;14.50;29.48
58295;BME280;45705;55.592;37.460;2023-05-02T08:43:10;99894.91;;;14.45;29.30
58295;BME280;45705;55.592;37.460;2023-05-02T08:45:43;99896.81;;;14.76;28.52
58295;BME280;45705;55.592;37.460;2023-05-02T08:48:11;99890.06;;;14.82;27.41
58295;BME280;45705;55.592;37.460;2023-05-02T08:50:43;99889.38;;;14.68;27.14
58295;BME280;45705;55.592;37.460;2023-05-02T08:53:11;99878.00;;;14.43;27.21
58295;BME280;45705;55.592;37.460;2023-05-02T08:55:40;99894.81;;;14.19;27.44
58295;BME280;45705;55.592;37.460;2023-05-02T08:58:07;99881.75;;;14.25;27.57
58295;BME280;45705;55.592;37.460;2023-05-02T09:00:41;99886.34;;;14.38;27.50
58295;BME280;45705;55.592;37.460;2023-05-02T09:03:32;99884.84;;;14.23;28.28
58295;BME280;45705;55.592;37.460;2023-05-02T09:06:19;99882.31;;;14.04;28.25
58295;BME280;45705;55.592;37.460;2023-05-02T09:08:47;99872.25;;;14.13;28.03
58295;BME280;45705;55.592;37.460;2023-05-02T09:11:15;99883.16;;;13.59;27.82
58295;BME280;45705;55.592;37.460;2023-05-02T09:13:43;99880.75;;;13.81;27.76
58295;BME280;45705;55.592;37.460;2023-05-02T09:16:12;99873.88;;;13.92;27.01
58295;BME280;45705;55.592;37.460;2023-05-02T09:18:43;99878.41;;;14.28;26.38
58295;BME280;45705;55.592;37.460;2023-05-02T09:21:12;99870.41;;;14.00;26.79
58295;BME280;45705;55.592;37.460;2023-05-02T09:23:43;99873.44;;;14.30;26.85
58295;BME280;45705;55.592;37.460;2023-05-02T09:26:15;99867.66;;;14.00;27.06
58295;BME280;45705;55.592;37.460;2023-05-02T09:28:46;99875.31;;;14.21;27.72
58295;BME280;45705;55.592;37.460;2023-05-02T09:31:19;99861.72;;;14.38;27.08
58295;BME280;45705;55.592;37.460;2023-05-02T09:33:46;99870.94;;;14.51;26.96
58295;BME280;45705;55.592;37.460;2023-05-02T09:36:15;99869.91;;;14.29;27.04
58295;BME280;45705;55.592;37.460;2023-05-02T09:38:42;99863.75;;;14.24;27.29
58295;BME280;45705;55.592;37.460;2023-05-02T09:41:08;99857.47;;;14.63;27.21
58295;BME280;45705;55.592;37.460;2023-05-02T09:43:35;99855.88;;;14.71;26.63
58295;BME280;45705;55.592;37.460;2023-05-02T09:46:03;99859.03;;;14.55;27.19
58295;BME280;45705;55.592;37.460;2023-05-02T09:48:30;99852.56;;;15.00;26.82
58295;BME280;45705;55.592;37.460;2023-05-02T09:50:57;99848.47;;;14.63;26.91
58295;BME280;45705;55.592;37.460;2023-05-02T09:53:24;99847.22;;;14.37;26.98
58295;BME280;45705;55.592;37.460;2023-05-02T09:56:17;99841.66;;;14.51;26.48
58295;BME280;45705;55.592;37.460;2023-05-02T09:58:43;99845.16;;;14.43;26.56
58295;BME280;45705;55.592;37.460;2023-05-02T10:01:16;99843.66;;;14.28;26.46
58295;BME280;45705;55.592;37.460;2023-05-02T10:03:46;99835.44;;;14.68;26.64
58295;BME280;45705;55.592;37.460;2023-05-02T10:06:12;99838.41;;;14.49;26.87
58295;BME280;45705;55.592;37.460;2023-05-02T10:08:41;99834.22;;;14.43;27.02
58295;BME280;45705;55.592;37.460;2023-05-02T10:11:07;99844.63;;;14.32;28.32
58295;BME280;45705;55.592;37.460;2023-05-02T10:13:37;99839.69;;;14.43;26.96
58295;BME280;45705;55.592;37.460;2023-05-02T10:16:05;99839.69;;;14.43;27.64
58295;BME280;45705;55.592;37.460;2023-05-02T10:19:05;99831.91;;;14.68;26.96
58295;BME280;45705;55.592;37.460;2023-05-02T10:21:33;99815.34;;;14.82;27.37
58295;BME280;45705;55.592;37.460;2023-05-02T10:24:00;99829.97;;;14.68;26.91
58295;BME280;45705;55.592;37.460;2023-05-02T10:26:27;99829.22;;;14.36;27.21
58295;BME280;45705;55.592;37.460;2023-05-02T10:28:55;99828.66;;;14.57;26.84
58295;BME280;45705;55.592;37.460;2023-05-02T10:31:21;99813.06;;;14.75;26.75
58295;BME280;45705;55.592;37.460;2023-05-02T10:33:50;99826.84;;;14.52;27.06
58295;BME280;45705;55.592;37.460;2023-05-02T10:36:20;99819.19;;;14.72;27.37
58295;BME280;45705;55.592;37.460;2023-05-02T10:38:47;99824.16;;;13.81;27.75
58295;BME280;45705;55.592;37.460;2023-05-02T10:41:18;99819.34;;;14.27;27.37
58295;BME280;45705;55.592;37.460;2023-05-02T10:43:46;99814.66;;;14.59;27.51
58295;BME280;45705;55.592;37.460;2023-05-02T10:46:33;99810.34;;;14.84;27.34
58295;BME280;45705;55.592;37.460;2023-05-02T10:49:09;99813.41;;;15.00;27.44
58295;BME280;45705;55.592;37.460;2023-05-02T10:51:37;99814.34;;;14.69;27.25
58295;BME280;45705;55.592;37.460;2023-05-02T10:57:14;99796.97;;;14.82;26.77
58295;BME280;45705;55.592;37.460;2023-05-02T10:59:41;99802.63;;;15.03;26.83
58295;BME280;45705;55.592;37.460;2023-05-02T11:04:58;99798.13;;;14.99;27.57
58295;BME280;45705;55.592;37.460;2023-05-02T11:07:36;99795.53;;;15.20;27.55
58295;BME280;45705;55.592;37.460;2023-05-02T11:12:55;99788.13;;;15.29;27.27
58295;BME280;45705;55.592;37.460;2023-05-02T11:17:58;99783.13;;;15.40;26.77
58295;BME280;45705;55.592;37.460;2023-05-02T11:20:26;99787.63;;;15.35;26.93
58295;BME280;45705;55.592;37.460;2023-05-02T11:22:54;99784.91;;;15.35;27.45
58295;BME280;45705;55.592;37.460;2023-05-02T11:25:34;99784.75;;;14.97;27.80
58295;BME280;45705;55.592;37.460;2023-05-02T11:28:00;99779.94;;;15.03;27.66
58295;BME280;45705;55.592;37.460;2023-05-02T11:30:55;99767.81;;;15.30;27.20
58295;BME280;45705;55.592;37.460;2023-05-02T11:33:21;99773.59;;;15.37;27.28
58295;BME280;45705;55.592;37.460;2023-05-02T11:35:47;99775.06;;;15.17;27.70
58295;BME280;45705;55.592;37.460;2023-05-02T11:38:15;99769.59;;;15.17;26.91
58295;BME280;45705;55.592;37.460;2023-05-02T11:40:49;99770.22;;;15.31;27.13
58295;BME280;45705;55.592;37.460;2023-05-02T11:43:17;99766.03;;;15.25;27.08
58295;BME280;45705;55.592;37.460;2023-05-02T11:45:43;99761.53;;;14.94;27.05
58295;BME280;45705;55.592;37.460;2023-05-02T11:48:11;99758.47;;;15.22;27.27
58295;BME280;45705;55.592;37.460;2023-05-02T11:50:46;99752.34;;;15.08;27.07
58295;BME280;45705;55.592;37.460;2023-05-02T11:53:14;99764.13;;;15.17;26.79
58295;BME280;45705;55.592;37.460;2023-05-02T11:56:01;99752.53;;;15.03;26.92
58295;BME280;45705;55.592;37.460;2023-05-02T11:58:28;99755.75;;;15.22;27.15
58295;BME280;45705;55.592;37.460;2023-05-02T12:00:57;99749.88;;;15.50;27.01
58295;BME280;45705;55.592;37.460;2023-05-02T12:03:28;99748.81;;;15.33;26.94
58295;BME280;45705;55.592;37.460;2023-05-02T12:05:56;99741.38;;;15.34;26.71
58295;BME280;45705;55.592;37.460;2023-05-02T12:08:26;99719.63;;;15.38;27.51
58295;BME280;45705;55.592;37.460;2023-05-02T12:10:54;99736.28;;;15.62;27.03
58295;BME280;45705;55.592;37.460;2023-05-02T12:13:23;99732.13;;;15.56;27.35
58295;BME280;45705;55.592;37.460;2023-05-02T12:15:50;99728.47;;;15.43;27.05
58295;BME280;45705;55.592;37.460;2023-05-02T12:18:18;99710.72;;;15.49;27.08
58295;BME280;45705;55.592;37.460;2023-05-02T12:20:45;99731.75;;;15.66;26.89
58295;BME280;45705;55.592;37.460;2023-05-02T12:23:11;99719.63;;;15.29;26.90
58295;BME280;45705;55.592;37.460;2023-05-02T12:25:39;99724.84;;;15.60;27.13
58295;BME280;45705;55.592;37.460;2023-05-02T12:28:05;99722.16;;;15.43;26.96
58295;BME280;45705;55.592;37.460;2023-05-02T12:30:32;99735.31;;;14.93;27.30
58295;BME280;45705;55.592;37.460;2023-05-02T12:32:59;99730.47;;;14.99;27.16
58295;BME280;45705;55.592;37.460;2023-05-02T12:35:29;99729.34;;;14.91;27.29
58295;BME280;45705;55.592;37.460;2023-05-02T12:38:17;99722.56;;;15.15;27.52
58295;BME280;45705;55.592;37.460;2023-05-02T12:40:48;99716.44;;;15.18;27.06
58295;BME280;45705;55.592;37.460;2023-05-02T12:43:14;99718.81;;;15.28;26.95
58295;BME280;45705;55.592;37.460;2023-05-02T12:45:40;99714.66;;;15.22;27.30
58295;BME280;45705;55.592;37.460;2023-05-02T12:48:26;99710.28;;;15.21;27.29
58295;BME280;45705;55.592;37.460;2023-05-02T12:50:53;99710.28;;;15.21;26.92
58295;BME280;45705;55.592;37.460;2023-05-02T12:53:42;99708.50;;;15.34;26.56
58295;BME280;45705;55.592;37.460;2023-05-02T12:56:09;99702.25;;;15.07;26.76
58295;BME280;45705;55.592;37.460;2023-05-02T12:58:43;99713.56;;;14.88;27.65
58295;BME280;45705;55.592;37.460;2023-05-02T13:01:10;99717.91;;;14.89;27.54
58295;BME280;45705;55.592;37.460;2023-05-02T13:03:36;99712.25;;;14.94;27.46
58295;BME280;45705;55.592;37.460;2023-05-02T13:06:02;99698.09;;;14.92;27.43
58295;BME280;45705;55.592;37.460;2023-05-02T13:08:27;99700.19;;;14.61;27.82
58295;BME280;45705;55.592;37.460;2023-05-02T13:10:53;99700.84;;;14.84;27.54
58295;BME280;45705;55.592;37.460;2023-05-02T13:13:19;99704.19;;;14.98;27.80
58295;BME280;45705;55.592;37.460;2023-05-02T13:15:45;99702.25;;;15.16;27.86
58295;BME280;45705;55.592;37.460;2023-05-02T13:18:11;99692.09;;;15.16;28.03
58295;BME280;45705;55.592;37.460;2023-05-02T13:20:36;99697.59;;;15.08;27.83
58295;BME280;45705;55.592;37.460;2023-05-02T13:23:02;99697.78;;;14.85;28.13
58295;BME280;45705;55.592;37.460;2023-05-02T13:25:28;99701.66;;;14.84;28.13
58295;BME280;45705;55.592;37.460;2023-05-02T13:27:53;99701.50;;;14.89;27.91
58295;BME280;45705;55.592;37.460;2023-05-02T13:30:19;99686.66;;;14.90;27.71